createdAt,value
2022-08-17T00:00:44.030Z,19.10
2022-08-17T00:03:22.729Z,17.83
2022-08-17T00:05:54.936Z,17.77
2022-08-17T00:08:27.585Z,16.00
2022-08-17T00:10:57.672Z,16.27
2022-08-17T00:13:33.223Z,14.80
2022-08-17T00:16:07.097Z,17.43
2022-08-17T00:19:01.792Z,16.67
2022-08-17T00:21:28.004Z,20.37
2022-08-17T00:24:17.981Z,15.10
2022-08-17T00:26:47.189Z,17.27
2022-08-17T00:29:19.866Z,22.70
2022-08-17T00:31:49.845Z,15.97
2022-08-17T00:34:20.016Z,16.20
2022-08-17T00:36:48.745Z,20.07
2022-08-17T00:39:17.480Z,16.00
2022-08-17T00:41:46.320Z,15.60
2022-08-17T00:44:15.686Z,13.93
2022-08-17T00:46:46.083Z,14.83
2022-08-17T00:49:19.422Z,17.13
2022-08-17T00:51:56.449Z,14.90
2022-08-17T00:54:31.650Z,14.53
2022-08-17T00:57:10.914Z,15.03
2022-08-17T00:59:46.169Z,15.67
2022-08-17T01:02:25.730Z,14.90
2022-08-17T01:04:57.221Z,15.60
2022-08-17T01:07:28.192Z,15.17
2022-08-17T01:09:56.996Z,16.73
2022-08-17T01:12:25.819Z,16.60
2022-08-17T01:14:54.574Z,16.53
2022-08-17T01:17:23.387Z,16.80
2022-08-17T01:19:52.293Z,17.33
2022-08-17T01:22:25.014Z,17.27
2022-08-17T01:25:00.334Z,15.57
2022-08-17T01:27:30.310Z,16.17
2022-08-17T01:30:56.656Z,17.13
2022-08-17T01:32:57.052Z,13.83
2022-08-17T01:35:26.554Z,16.23
2022-08-17T01:37:56.687Z,17.00
2022-08-17T01:40:34.910Z,16.70
2022-08-17T01:43:11.709Z,15.43
2022-08-17T01:45:45.270Z,14.73
2022-08-17T01:48:15.530Z,15.47
2022-08-17T01:50:47.650Z,15.87
2022-08-17T01:53:24.250Z,17.50
2022-08-17T01:55:59.217Z,17.40
2022-08-17T01:58:28.150Z,13.90
2022-08-17T02:00:59.958Z,15.77
2022-08-17T02:03:31.419Z,17.40
2022-08-17T02:06:00.473Z,15.10
2022-08-17T02:08:38.794Z,13.57
2022-08-17T02:11:14.713Z,16.50
2022-08-17T02:13:44.912Z,16.27
2022-08-17T02:16:14.682Z,16.57
2022-08-17T02:18:43.513Z,18.00
2022-08-17T02:21:13.127Z,14.30
2022-08-17T02:23:47.591Z,17.07
2022-08-17T02:26:26.102Z,15.10
2022-08-17T02:28:55.862Z,16.80
2022-08-17T02:31:24.562Z,16.73
2022-08-17T02:34:00.243Z,15.37
2022-08-17T02:36:34.295Z,15.80
2022-08-17T02:39:07.871Z,15.07
2022-08-17T02:41:37.610Z,13.63
2022-08-17T02:44:07.701Z,16.13
2022-08-17T02:46:37.035Z,14.73
2022-08-17T02:49:06.463Z,17.87
2022-08-17T02:51:35.586Z,14.17
2022-08-17T02:54:41.713Z,16.30
2022-08-17T02:56:54.629Z,15.77
2022-08-17T02:59:24.433Z,14.60
2022-08-17T03:01:53.741Z,18.73
2022-08-17T03:04:22.589Z,15.27
2022-08-17T03:06:51.294Z,13.57
2022-08-17T03:09:21.424Z,13.90
2022-08-17T03:11:50.894Z,14.80
2022-08-17T03:14:26.389Z,19.50
2022-08-17T03:16:55.256Z,16.83
2022-08-17T03:19:24.071Z,15.17
2022-08-17T03:21:55.063Z,15.73
2022-08-17T03:24:28.807Z,16.60
2022-08-17T03:26:57.791Z,20.43
2022-08-17T03:29:26.711Z,15.70
2022-08-17T03:31:55.479Z,15.27
2022-08-17T03:34:24.192Z,19.87
2022-08-17T03:36:52.992Z,17.73
2022-08-17T03:39:21.641Z,17.07
2022-08-17T03:41:51.690Z,15.50
2022-08-17T03:44:20.528Z,19.20
2022-08-17T03:47:06.892Z,16.63
2022-08-17T03:49:53.043Z,15.67
2022-08-17T03:52:38.935Z,19.03
2022-08-17T03:55:30.760Z,16.63
2022-08-17T03:58:06.490Z,18.57
2022-08-17T04:00:39.686Z,19.10
2022-08-17T04:03:09.071Z,18.67
2022-08-17T04:05:38.105Z,16.43
2022-08-17T04:08:07.628Z,19.30
2022-08-17T04:10:38.372Z,20.07
2022-08-17T04:13:15.869Z,19.73
2022-08-17T04:15:54.137Z,19.73
2022-08-17T04:18:22.768Z,17.57
2022-08-17T04:20:51.500Z,22.40
2022-08-17T04:23:20.995Z,18.00
2022-08-17T04:25:53.319Z,17.73
2022-08-17T04:28:23.474Z,16.87
2022-08-17T04:30:52.440Z,17.77
2022-08-17T04:33:24.976Z,18.70
2022-08-17T04:35:58.133Z,17.50
2022-08-17T04:38:30.908Z,17.60
2022-08-17T04:41:15.477Z,18.30
2022-08-17T04:43:47.878Z,21.07
2022-08-17T04:46:20.755Z,23.53
2022-08-17T04:48:53.496Z,26.80
2022-08-17T04:51:25.349Z,25.27
2022-08-17T04:53:58.166Z,28.17
2022-08-17T04:56:29.857Z,24.50
2022-08-17T04:59:05.937Z,25.17
2022-08-17T05:01:38.002Z,22.43
2022-08-17T05:04:32.141Z,22.97
2022-08-17T05:07:00.932Z,20.10
2022-08-17T05:09:30.206Z,19.37
2022-08-17T05:12:02.599Z,21.60
2022-08-17T05:14:33.980Z,19.43
2022-08-17T05:17:07.208Z,16.60
2022-08-17T05:19:40.100Z,22.40
2022-08-17T05:22:08.945Z,17.63
2022-08-17T05:24:43.291Z,17.93
2022-08-17T05:27:19.038Z,18.77
2022-08-17T05:29:49.616Z,17.23
2022-08-17T05:32:38.034Z,19.67
2022-08-17T05:35:09.936Z,19.10
2022-08-17T05:37:39.135Z,18.43
2022-08-17T05:40:10.052Z,21.43
2022-08-17T05:42:38.908Z,19.80
2022-08-17T05:45:12.805Z,19.60
2022-08-17T05:47:42.767Z,19.70
2022-08-17T05:50:27.386Z,19.90
2022-08-17T05:53:10.920Z,22.40
2022-08-17T05:55:52.413Z,20.50
2022-08-17T05:58:32.975Z,18.87
2022-08-17T06:01:14.111Z,19.57
2022-08-17T06:03:58.664Z,19.37
2022-08-17T06:06:40.710Z,19.00
2022-08-17T06:09:46.049Z,17.73
2022-08-17T06:12:47.747Z,15.37
2022-08-17T06:19:46.002Z,16.80
2022-08-17T06:22:21.861Z,17.57
2022-08-17T06:24:57.929Z,14.13
2022-08-17T06:27:35.955Z,16.00
2022-08-17T06:30:13.265Z,16.40
2022-08-17T06:32:49.692Z,17.50
2022-08-17T06:35:34.051Z,14.77
2022-08-17T06:38:37.666Z,13.43
2022-08-17T06:41:20.371Z,13.60
2022-08-17T06:44:07.753Z,14.27
2022-08-17T06:46:42.585Z,16.13
2022-08-17T06:49:21.966Z,14.67
2022-08-17T06:51:59.382Z,15.10
2022-08-17T06:54:40.332Z,12.73
2022-08-17T06:57:19.699Z,14.10
2022-08-17T06:59:56.753Z,12.50
2022-08-17T07:02:51.913Z,12.47
2022-08-17T07:05:26.817Z,12.77
2022-08-17T07:08:07.123Z,12.13
2022-08-17T07:10:45.995Z,13.00
2022-08-17T07:13:51.465Z,11.10
2022-08-17T07:16:29.259Z,11.03
2022-08-17T07:19:00.121Z,11.23
2022-08-17T07:21:46.082Z,11.90
2022-08-17T07:24:35.761Z,11.20
2022-08-17T07:27:09.521Z,12.00
2022-08-17T07:29:45.164Z,10.57
2022-08-17T07:32:19.598Z,11.90
2022-08-17T07:35:22.148Z,9.13
2022-08-17T07:38:25.972Z,9.10
2022-08-17T07:41:06.334Z,10.37
2022-08-17T07:43:39.037Z,10.40
2022-08-17T07:46:37.864Z,7.47
2022-08-17T07:49:37.437Z,10.60
2022-08-17T07:52:47.293Z,7.27
2022-08-17T07:55:01.202Z,6.63
2022-08-17T07:57:37.255Z,9.60
2022-08-17T08:00:29.126Z,8.70
2022-08-17T08:03:26.233Z,8.13
2022-08-17T08:06:02.265Z,7.50
2022-08-17T08:08:42.404Z,6.30
2022-08-17T08:11:29.380Z,7.80
2022-08-17T08:14:28.310Z,6.90
2022-08-17T08:17:02.535Z,7.23
2022-08-17T08:19:33.249Z,5.30
2022-08-17T08:22:11.573Z,5.80
2022-08-17T08:25:05.685Z,7.73
2022-08-17T08:27:51.290Z,5.93
2022-08-17T08:30:23.828Z,6.43
2022-08-17T08:33:22.060Z,6.60
2022-08-17T08:36:00.511Z,7.70
2022-08-17T08:38:45.574Z,6.63
2022-08-17T08:41:49.395Z,7.43
2022-08-17T08:44:59.679Z,6.77
2022-08-17T08:48:05.593Z,6.10
2022-08-17T08:50:49.519Z,7.53
2022-08-17T08:53:32.984Z,8.43
2022-08-17T08:56:11.764Z,6.93
2022-08-17T08:58:55.570Z,7.03
2022-08-17T09:01:38.207Z,4.90
2022-08-17T09:05:02.815Z,8.50
2022-08-17T09:07:38.454Z,4.80
2022-08-17T09:10:22.087Z,5.53
2022-08-17T09:13:15.967Z,7.90
2022-08-17T09:15:49.628Z,5.70
2022-08-17T09:19:00.518Z,4.97
2022-08-17T09:21:25.261Z,5.57
2022-08-17T09:24:11.240Z,5.17
2022-08-17T09:26:49.874Z,5.13
2022-08-17T09:29:24.475Z,6.10
2022-08-17T09:31:58.433Z,5.27
2022-08-17T09:34:36.546Z,4.93
2022-08-17T09:37:27.245Z,5.00
2022-08-17T09:40:10.997Z,7.30
2022-08-17T09:42:48.346Z,6.43
2022-08-17T09:45:33.672Z,6.40
2022-08-17T09:48:12.462Z,5.33
2022-08-17T09:50:55.356Z,4.83
2022-08-17T09:53:39.551Z,7.73
2022-08-17T09:56:36.105Z,5.63
2022-08-17T09:59:44.857Z,4.80
2022-08-17T10:02:43.549Z,6.73
2022-08-17T10:05:22.416Z,8.17
2022-08-17T10:08:09.443Z,7.03
2022-08-17T10:10:56.538Z,5.60
2022-08-17T10:13:38.489Z,5.17
2022-08-17T10:16:22.036Z,6.00
2022-08-17T10:19:11.728Z,5.73
2022-08-17T10:22:14.651Z,6.80
2022-08-17T10:25:22.912Z,5.00
2022-08-17T10:28:00.415Z,5.10
2022-08-17T10:30:33.969Z,5.37
2022-08-17T10:33:07.569Z,4.53
2022-08-17T10:35:51.920Z,4.97
2022-08-17T10:38:48.916Z,5.03
2022-08-17T10:41:30.402Z,4.37
2022-08-17T10:44:37.084Z,5.47
2022-08-17T10:47:11.770Z,11.43
2022-08-17T10:49:48.052Z,5.60
2022-08-17T10:52:57.517Z,4.70
2022-08-17T10:55:26.521Z,4.50
2022-08-17T10:58:22.132Z,6.07
2022-08-17T11:01:12.716Z,4.50
2022-08-17T11:03:55.308Z,4.80
2022-08-17T11:06:37.177Z,5.23
2022-08-17T11:09:35.078Z,6.17
2022-08-17T11:12:29.624Z,5.30
2022-08-17T11:15:30.874Z,5.47
2022-08-17T11:18:39.969Z,6.33
2022-08-17T11:21:52.773Z,5.23
2022-08-17T11:24:30.632Z,5.27
2022-08-17T11:27:24.260Z,4.53
2022-08-17T11:30:01.426Z,5.27
2022-08-17T11:32:38.970Z,5.40
2022-08-17T11:35:41.339Z,4.50
2022-08-17T11:38:27.836Z,5.23
2022-08-17T11:41:21.562Z,6.20
2022-08-17T11:44:18.657Z,7.00
2022-08-17T11:47:29.586Z,5.60
2022-08-17T11:51:01.703Z,5.43
2022-08-17T11:57:02.594Z,4.50
2022-08-17T11:59:59.758Z,7.30
2022-08-17T12:02:47.920Z,5.93
2022-08-17T12:05:36.092Z,5.07
2022-08-17T12:08:17.842Z,4.90
2022-08-17T12:11:01.796Z,4.60
2022-08-17T12:13:38.416Z,5.20
2022-08-17T12:16:10.534Z,5.23
2022-08-17T12:18:42.250Z,4.80
2022-08-17T12:21:40.404Z,5.60
2022-08-17T12:24:29.361Z,4.53
2022-08-17T12:27:01.859Z,4.27
2022-08-17T12:29:35.193Z,4.80
2022-08-17T12:32:14.159Z,5.20
2022-08-17T12:34:46.898Z,5.67
2022-08-17T12:37:21.305Z,4.40
2022-08-17T12:39:56.188Z,4.87
2022-08-17T12:42:34.918Z,4.70
2022-08-17T12:45:04.218Z,5.17
2022-08-17T12:47:37.231Z,5.63
2022-08-17T12:50:29.492Z,4.07
2022-08-17T12:53:02.665Z,6.00
2022-08-17T12:55:39.057Z,6.17
2022-08-17T12:58:14.741Z,6.10
2022-08-17T13:00:59.887Z,6.30
2022-08-17T13:03:36.286Z,7.77
2022-08-17T13:06:09.235Z,6.50
2022-08-17T13:08:44.000Z,5.50
2022-08-17T13:11:22.673Z,5.00
2022-08-17T13:13:55.166Z,5.50
2022-08-17T13:16:28.291Z,7.20
2022-08-17T13:19:09.937Z,5.80
2022-08-17T13:21:47.939Z,6.27
2022-08-17T13:24:25.143Z,6.00
2022-08-17T13:27:08.036Z,6.43
2022-08-17T13:29:42.120Z,6.33
2022-08-17T13:32:24.412Z,5.23
2022-08-17T13:35:15.261Z,4.60
2022-08-17T13:38:01.451Z,7.97
2022-08-17T13:40:53.344Z,5.93
2022-08-17T13:43:45.910Z,6.03
2022-08-17T13:46:22.394Z,15.40
2022-08-17T13:49:02.957Z,4.40
2022-08-17T13:51:43.266Z,5.97
2022-08-17T13:54:27.739Z,5.03
2022-08-17T13:57:03.896Z,5.93
2022-08-17T13:59:55.969Z,6.63
2022-08-17T14:02:28.416Z,11.73
2022-08-17T14:05:00.747Z,6.23
2022-08-17T14:07:35.226Z,7.30
2022-08-17T14:10:12.535Z,5.57
2022-08-17T14:12:46.392Z,5.43
2022-08-17T14:15:20.634Z,6.63
2022-08-17T14:17:50.597Z,5.43
2022-08-17T14:20:24.656Z,6.37
2022-08-17T14:22:56.087Z,6.03
2022-08-17T14:25:28.563Z,6.33
2022-08-17T14:27:59.222Z,9.37
2022-08-17T14:30:30.227Z,6.77
2022-08-17T14:33:02.305Z,6.13
2022-08-17T14:35:31.305Z,4.60
2022-08-17T14:38:00.321Z,5.53
2022-08-17T14:40:29.693Z,6.40
2022-08-17T14:43:00.104Z,6.33
2022-08-17T14:45:32.892Z,5.50
2022-08-17T14:48:06.377Z,9.73
2022-08-17T14:50:36.731Z,6.23
2022-08-17T14:53:07.632Z,4.83
2022-08-17T14:55:39.991Z,6.07
2022-08-17T14:58:10.695Z,5.50
2022-08-17T15:00:43.112Z,5.97
2022-08-17T15:03:12.678Z,5.40
2022-08-17T15:05:41.608Z,5.53
2022-08-17T15:08:10.509Z,4.70
2022-08-17T15:10:40.744Z,6.63
2022-08-17T15:13:20.162Z,7.10
2022-08-17T15:15:49.622Z,4.93
2022-08-17T15:18:19.029Z,6.43
2022-08-17T15:20:50.146Z,6.50
2022-08-17T15:23:22.764Z,5.27
2022-08-17T15:25:54.350Z,5.90
2022-08-17T15:28:25.120Z,5.30
2022-08-17T15:30:55.233Z,7.93
2022-08-17T15:33:29.976Z,6.50
2022-08-17T15:36:02.466Z,5.27
2022-08-17T15:38:35.418Z,5.40
2022-08-17T15:41:05.252Z,5.77
2022-08-17T15:43:36.509Z,5.30
2022-08-17T15:46:10.601Z,7.03
2022-08-17T15:48:44.690Z,5.30
2022-08-17T15:51:16.322Z,6.33
2022-08-17T15:53:48.712Z,6.20
2022-08-17T15:56:18.354Z,6.07
2022-08-17T15:58:51.092Z,5.67
2022-08-17T16:02:24.759Z,5.40
2022-08-17T16:04:26.881Z,4.73
2022-08-17T16:07:00.030Z,6.50
2022-08-17T16:09:29.123Z,5.53
2022-08-17T16:11:58.005Z,4.93
2022-08-17T16:14:33.929Z,5.00
2022-08-17T16:17:04.683Z,5.70
2022-08-17T16:19:34.493Z,5.83
2022-08-17T16:22:04.302Z,5.17
2022-08-17T16:24:34.131Z,5.90
2022-08-17T16:27:03.360Z,6.67
2022-08-17T16:29:43.224Z,5.60
2022-08-17T16:32:21.902Z,5.90
2022-08-17T16:35:03.611Z,5.47
2022-08-17T16:37:34.181Z,5.60
2022-08-17T16:40:05.955Z,7.50
2022-08-17T16:42:37.725Z,5.10
2022-08-17T16:45:13.165Z,6.63
2022-08-17T16:47:43.047Z,5.00
2022-08-17T16:50:15.495Z,5.40
2022-08-17T16:52:48.562Z,5.20
2022-08-17T16:55:20.735Z,7.13
2022-08-17T16:57:50.641Z,6.10
2022-08-17T17:00:21.641Z,6.03
2022-08-17T17:02:50.914Z,5.50
2022-08-17T17:05:44.643Z,6.03
2022-08-17T17:08:32.777Z,5.43
2022-08-17T17:11:11.726Z,6.83
2022-08-17T17:13:47.851Z,6.03
2022-08-17T17:16:24.109Z,6.10
2022-08-17T17:19:10.353Z,6.20
2022-08-17T17:21:48.498Z,6.87
2022-08-17T17:24:30.008Z,6.20
2022-08-17T17:27:28.829Z,5.87
2022-08-17T17:30:10.777Z,6.00
2022-08-17T17:32:47.433Z,6.63
2022-08-17T17:35:26.889Z,7.50
2022-08-17T17:37:58.390Z,8.10
2022-08-17T17:40:39.340Z,7.30
2022-08-17T17:43:36.888Z,6.97
2022-08-17T17:46:28.645Z,8.73
2022-08-17T17:49:00.199Z,7.77
2022-08-17T17:52:06.337Z,8.37
2022-08-17T17:55:02.538Z,11.60
2022-08-17T17:57:49.053Z,7.30
2022-08-17T18:00:24.717Z,9.10
2022-08-17T18:03:17.036Z,8.03
2022-08-17T18:06:22.639Z,12.60
2022-08-17T18:09:06.410Z,8.83
2022-08-17T18:12:09.312Z,7.73
2022-08-17T18:15:03.584Z,15.40
2022-08-17T18:17:34.152Z,10.37
2022-08-17T18:20:03.249Z,8.40
2022-08-17T18:22:35.011Z,8.83
2022-08-17T18:25:43.944Z,9.50
2022-08-17T18:28:26.222Z,8.83
2022-08-17T18:31:13.635Z,9.47
2022-08-17T18:33:45.986Z,10.37
2022-08-17T18:36:29.366Z,11.17
2022-08-17T18:39:18.171Z,9.40
2022-08-17T18:41:53.225Z,9.20
2022-08-17T18:44:29.548Z,11.03
2022-08-17T18:47:15.463Z,9.27
2022-08-17T18:49:48.931Z,8.33
2022-08-17T18:52:24.940Z,11.70
2022-08-17T18:55:10.301Z,13.23
2022-08-17T18:57:45.853Z,9.77
2022-08-17T19:00:36.739Z,10.07
2022-08-17T19:03:25.040Z,9.73
2022-08-17T19:05:56.524Z,8.97
2022-08-17T19:08:37.050Z,9.03
2022-08-17T19:11:11.609Z,9.33
2022-08-17T19:13:48.404Z,13.73
2022-08-17T19:16:28.576Z,12.13
2022-08-17T19:19:05.384Z,8.93
2022-08-17T19:21:40.481Z,10.90
2022-08-17T19:24:19.682Z,9.80
2022-08-17T19:26:57.529Z,10.03
2022-08-17T19:29:44.128Z,10.33
2022-08-17T19:32:16.965Z,11.90
2022-08-17T19:34:46.510Z,10.63
2022-08-17T19:37:31.646Z,10.77
2022-08-17T19:40:29.266Z,9.63
2022-08-17T19:43:18.003Z,9.63
2022-08-17T19:46:08.790Z,10.23
2022-08-17T19:48:53.480Z,11.43
2022-08-17T19:51:41.744Z,9.93
2022-08-17T19:54:23.002Z,13.80
2022-08-17T19:57:06.018Z,10.80
2022-08-17T19:59:55.445Z,10.63
2022-08-17T20:02:39.833Z,13.90
2022-08-17T20:05:16.999Z,10.20
2022-08-17T20:07:56.644Z,10.57
2022-08-17T20:10:40.600Z,9.53
2022-08-17T20:13:16.819Z,10.63
2022-08-17T20:15:47.923Z,9.97
2022-08-17T20:18:27.486Z,10.17
2022-08-17T20:21:03.049Z,10.70
2022-08-17T20:23:52.918Z,13.47
2022-08-17T20:26:30.065Z,11.43
2022-08-17T20:29:37.676Z,10.30
2022-08-17T20:32:26.262Z,9.80
2022-08-17T20:35:27.108Z,10.53
2022-08-17T20:38:02.280Z,10.43
2022-08-17T20:40:38.291Z,10.67
2022-08-17T20:43:49.069Z,13.33
2022-08-17T20:46:52.173Z,9.90
2022-08-17T20:49:30.521Z,9.93
2022-08-17T20:52:08.628Z,11.00
2022-08-17T20:54:52.868Z,11.37
2022-08-17T20:57:48.933Z,11.30
2022-08-17T21:00:44.929Z,10.60
2022-08-17T21:03:52.342Z,13.30
2022-08-17T21:06:26.789Z,13.83
2022-08-17T21:09:00.594Z,11.03
2022-08-17T21:17:27.604Z,15.00
2022-08-17T21:21:07.475Z,10.37
2022-08-17T21:28:33.916Z,9.53
2022-08-17T21:49:13.313Z,11.00
2022-08-17T21:52:33.336Z,11.07
2022-08-17T21:55:31.166Z,13.40
2022-08-17T21:58:37.470Z,12.07
2022-08-17T22:01:59.645Z,11.50
2022-08-17T22:04:50.982Z,12.07
2022-08-17T22:07:50.921Z,11.83
2022-08-17T22:11:21.887Z,11.97
2022-08-17T22:14:51.675Z,11.27
2022-08-17T22:18:10.160Z,10.73
2022-08-17T22:21:27.285Z,13.00
2022-08-17T22:24:36.737Z,11.87
2022-08-17T22:28:22.060Z,11.00
2022-08-17T22:31:16.614Z,13.43
2022-08-17T22:34:30.877Z,12.67
2022-08-17T22:37:35.506Z,11.80
2022-08-17T22:40:52.939Z,12.53
2022-08-17T22:43:57.941Z,15.13
2022-08-17T22:46:32.453Z,14.93
2022-08-17T22:49:02.125Z,11.83
2022-08-17T22:51:32.733Z,11.97
2022-08-17T22:54:31.225Z,11.20
2022-08-17T22:57:22.920Z,13.83
2022-08-17T22:59:57.604Z,12.50
2022-08-17T23:02:29.017Z,12.97
2022-08-17T23:05:22.881Z,13.37
2022-08-17T23:07:53.941Z,11.47
2022-08-17T23:10:22.733Z,12.10
2022-08-17T23:12:51.895Z,12.67
2022-08-17T23:15:22.156Z,11.77
2022-08-17T23:17:51.437Z,12.17
2022-08-17T23:20:20.685Z,13.60
2022-08-17T23:22:51.911Z,13.30
2022-08-17T23:25:29.711Z,13.23
2022-08-17T23:28:01.809Z,13.20
2022-08-17T23:30:35.624Z,12.83
2022-08-17T23:33:08.923Z,13.40
2022-08-17T23:35:38.939Z,16.33
2022-08-17T23:38:10.685Z,14.23
2022-08-17T23:40:40.471Z,12.33
2022-08-17T23:43:24.308Z,13.43
2022-08-17T23:45:58.055Z,13.50
2022-08-17T23:48:36.736Z,13.17
2022-08-17T23:51:10.726Z,14.30
2022-08-17T23:53:44.231Z,13.67
2022-08-17T23:56:13.067Z,14.00
2022-08-17T23:58:44.925Z,13.87
